Time;durP1;ratioP1;P1;durP2;ratioP2;P2;SDS_P1;SDS_P2;PMS_P1;PMS_P2;Temp;Humidity;BMP_temperature;BMP_pressure;BME280_temperature;BME280_humidity;BME280_pressure;Samples;Min_cycle;Max_cycle;Signal;HPM_P1;HPM_P2
2022/08/05 00:02:18;;;;;;;;;;;;;;;22.06;81.61;153199.34;1779717;80;20488;-59
2022/08/05 00:04:45;;;;;;;;;;;;;;;22.02;81.66;153190.17;1775927;80;20171;-59
2022/08/05 00:07:12;;;;;;;;;;;;;;;21.97;81.85;153178.39;1750081;81;21239;-59
2022/08/05 00:09:39;;;;;;;;;;;;;;;21.93;82.29;153167.94;1739575;81;20201;-59
2022/08/05 00:12:06;;;;;;;;;;;;;;;21.91;82.65;153161.44;1781191;79;20483;-59
2022/08/05 00:14:33;;;;;;;;;;;;;;;21.89;82.93;153157.48;1799447;78;20137;-59
2022/08/05 00:17:00;;;;;;;;;;;;;;;21.88;83.12;153156.20;1799065;79;20322;-59
2022/08/05 00:19:26;;;;;;;;;;;;;;;21.88;83.08;153156.20;1748357;78;21137;-59
2022/08/05 00:21:53;;;;;;;;;;;;;;;21.87;83.05;153153.53;1737772;81;20196;-59
2022/08/05 00:24:20;;;;;;;;;;;;;;;21.87;83.27;153152.25;1737516;81;20197;-59
2022/08/05 00:26:47;;;;;;;;;;;;;;;21.87;83.44;153153.53;1737696;82;20916;-58
2022/08/05 00:29:13;;;;;;;;;;;;;;;21.87;83.28;153153.53;1737815;82;20124;-58
2022/08/05 00:31:40;;;;;;;;;;;;;;;21.85;83.20;153147.03;1737852;82;21130;-58
2022/08/05 00:34:07;;;;;;;;;;;;;;;21.81;83.03;153136.58;1737471;82;20185;-58
2022/08/05 00:36:34;;;;;;;;;;;;;;;21.78;83.18;153128.75;1737975;82;20097;-58
2022/08/05 00:39:00;;;;;;;;;;;;;;;21.74;83.34;153119.58;1737734;82;20152;-58
2022/08/05 00:41:29;;;;;;;;;;;;;;;21.69;83.58;153107.80;1737711;82;20185;-58
2022/08/05 00:43:56;;;;;;;;;;;;;;;21.65;83.78;153096.02;1737271;82;22596;-58
2022/08/05 00:46:23;;;;;;;;;;;;;;;21.61;84.04;153086.84;1737501;82;20157;-58
2022/08/05 00:48:50;;;;;;;;;;;;;;;21.60;84.18;153084.23;1737722;82;20191;-58
2022/08/05 00:51:17;;;;;;;;;;;;;;;21.56;84.30;153073.78;1737787;82;20180;-58
2022/08/05 00:53:44;;;;;;;;;;;;;;;21.49;84.56;153056.78;1737857;82;20129;-58
2022/08/05 00:56:10;;;;;;;;;;;;;;;21.43;84.88;153042.39;1737568;82;21271;-58
2022/08/05 00:58:37;;;;;;;;;;;;;;;21.39;85.24;153031.94;1737740;82;20259;-58
2022/08/05 01:01:04;;;;;;;;;;;;;;;21.34;85.48;153018.88;1737882;82;20189;-58
2022/08/05 01:03:31;;;;;;;;;;;;;;;21.32;85.85;153013.61;1737856;82;20385;-59
2022/08/05 01:05:58;;;;;;;;;;;;;;;21.31;86.11;153012.33;1758962;81;20177;-59
2022/08/05 01:08:25;;;;;;;;;;;;;;;21.27;86.22;153001.88;1769635;80;21213;-59
2022/08/05 01:10:55;;;;;;;;;;;;;;;21.24;86.45;152992.72;1763815;81;20176;-58
2022/08/05 01:13:34;;;;;;;;;;;;;;;21.22;86.67;152988.81;1739200;82;20203;-58
2022/08/05 01:16:01;;;;;;;;;;;;;;;21.19;86.90;152980.94;1739231;82;21482;-58
2022/08/05 01:18:32;;;;;;;;;;;;;;;21.14;87.14;152969.20;1764627;79;20143;-57
2022/08/05 01:21:18;;;;;;;;;;;;;;;21.11;87.46;152961.38;1797559;79;21770;-57
2022/08/05 01:23:58;;;;;;;;;;;;;;;21.07;87.77;152950.88;1799096;79;20173;-58
2022/08/05 01:26:47;;;;;;;;;;;;;;;21.00;88.34;152932.59;1798633;79;20213;-58
2022/08/05 01:29:20;;;;;;;;;;;;;;;20.96;88.74;152922.16;1798639;79;20206;-59
2022/08/05 01:31:48;;;;;;;;;;;;;;;20.94;89.25;152916.92;1798807;79;20236;-59
2022/08/05 01:34:24;;;;;;;;;;;;;;;20.92;89.62;152911.70;1798654;79;21235;-58
2022/08/05 01:36:57;;;;;;;;;;;;;;;20.88;89.90;152903.81;1798790;79;20205;-58
2022/08/05 01:39:23;;;;;;;;;;;;;;;20.90;90.52;152907.77;1797849;79;20201;-58
2022/08/05 01:41:50;;;;;;;;;;;;;;;20.89;90.56;152906.48;1798693;78;20232;-58
2022/08/05 01:44:17;;;;;;;;;;;;;;;20.91;90.53;152909.09;1798670;78;20183;-58
2022/08/05 01:46:43;;;;;;;;;;;;;;;20.89;90.47;152906.48;1798629;79;21316;-57
2022/08/05 01:49:12;;;;;;;;;;;;;;;20.86;90.62;152898.59;1798561;78;20236;-58
2022/08/05 01:51:39;;;;;;;;;;;;;;;20.82;91.11;152888.16;1799231;78;20134;-59
2022/08/05 01:54:07;;;;;;;;;;;;;;;20.79;91.81;152879.00;1798665;79;20475;-59
2022/08/05 01:56:36;;;;;;;;;;;;;;;20.77;92.22;152875.05;1799301;78;20163;-59
2022/08/05 01:59:05;;;;;;;;;;;;;;;20.76;92.59;152872.44;1799061;79;21245;-59
2022/08/05 02:01:33;;;;;;;;;;;;;;;20.77;92.85;152875.05;1799032;79;20124;-59
2022/08/05 02:03:59;;;;;;;;;;;;;;;20.77;92.88;152875.05;1798724;79;20189;-59
2022/08/05 02:06:26;;;;;;;;;;;;;;;20.75;93.19;152869.83;1767755;78;20188;-59
2022/08/05 02:08:53;;;;;;;;;;;;;;;20.75;93.41;152871.11;1770228;80;20706;-58
2022/08/05 02:11:19;;;;;;;;;;;;;;;20.74;93.83;152867.22;1788806;79;21222;-58
2022/08/05 02:14:02;;;;;;;;;;;;;;;20.72;94.05;152862.00;1815982;79;20467;-59
2022/08/05 02:16:37;;;;;;;;;;;;;;;20.71;94.12;152859.38;1816174;79;20150;-59
2022/08/05 02:19:26;;;;;;;;;;;;;;;20.65;94.19;152845.00;1786312;79;20458;-59
2022/08/05 02:22:12;;;;;;;;;;;;;;;20.65;94.34;152843.67;1771738;81;20246;-58
2022/08/05 02:24:39;;;;;;;;;;;;;;;20.59;94.46;152830.63;1771802;81;21938;-58
2022/08/05 02:27:08;;;;;;;;;;;;;;;20.56;94.40;152822.78;1771546;81;20188;-58
2022/08/05 02:29:36;;;;;;;;;;;;;;;20.52;94.48;152812.34;1771835;81;20141;-58
2022/08/05 02:32:04;;;;;;;;;;;;;;;20.49;94.42;152804.50;1771855;81;20878;-58
2022/08/05 02:34:31;;;;;;;;;;;;;;;20.45;94.43;152794.06;1771913;81;20136;-59
2022/08/05 02:37:00;;;;;;;;;;;;;;;20.41;94.50;152783.58;1772101;81;21134;-59
2022/08/05 02:39:27;;;;;;;;;;;;;;;20.37;94.74;152773.14;1771891;81;20176;-58
2022/08/05 02:41:53;;;;;;;;;;;;;;;20.35;95.13;152767.91;1771829;81;20203;-58
2022/08/05 02:44:20;;;;;;;;;;;;;;;20.35;95.13;152767.91;1771622;81;20472;-59
2022/08/05 02:46:47;;;;;;;;;;;;;;;20.33;95.32;152765.30;1771730;81;20181;-59
2022/08/05 02:49:17;;;;;;;;;;;;;;;20.32;95.56;152761.38;1771801;81;21229;-59
2022/08/05 02:51:43;;;;;;;;;;;;;;;20.31;95.43;152760.09;1772038;81;20108;-59
2022/08/05 02:54:11;;;;;;;;;;;;;;;20.29;95.59;152754.86;1771597;81;20462;-59
2022/08/05 02:56:39;;;;;;;;;;;;;;;20.28;95.88;152752.25;1771675;81;20200;-59
2022/08/05 02:59:06;;;;;;;;;;;;;;;20.28;96.24;152752.25;1771587;81;20196;-59
2022/08/05 03:01:33;;;;;;;;;;;;;;;20.30;96.39;152757.47;1771746;81;21229;-59
2022/08/05 03:04:01;;;;;;;;;;;;;;;20.30;96.59;152757.47;1771437;81;20389;-58
2022/08/05 03:06:28;;;;;;;;;;;;;;;20.31;96.67;152760.09;1755023;80;20137;-59
2022/08/05 03:08:55;;;;;;;;;;;;;;;20.33;96.83;152765.30;1748461;80;20211;-57
2022/08/05 03:11:23;;;;;;;;;;;;;;;20.38;96.94;152775.75;1772162;79;20832;-57
2022/08/05 03:13:49;;;;;;;;;;;;;;;20.42;96.99;152786.19;1810161;78;21089;-58
2022/08/05 03:16:16;;;;;;;;;;;;;;;20.46;97.15;152796.67;1809540;78;20471;-58
2022/08/05 03:18:44;;;;;;;;;;;;;;;20.51;97.06;152809.73;1781862;78;20171;-58
2022/08/05 03:21:10;;;;;;;;;;;;;;;20.58;96.83;152826.72;1757370;80;20171;-56
2022/08/05 03:23:42;;;;;;;;;;;;;;;20.65;96.49;152843.67;1757482;81;20115;-57
2022/08/05 03:26:08;;;;;;;;;;;;;;;20.73;96.02;152864.61;1757505;80;21118;-58
2022/08/05 03:28:35;;;;;;;;;;;;;;;20.79;95.57;152880.28;1735421;81;20204;-58
2022/08/05 03:31:02;;;;;;;;;;;;;;;20.85;95.14;152895.98;1758054;81;20188;-59
2022/08/05 03:33:29;;;;;;;;;;;;;;;20.89;94.73;152906.48;1757905;81;20132;-58
2022/08/05 03:35:56;;;;;;;;;;;;;;;20.95;94.55;152920.81;1757781;80;20180;-58
2022/08/05 03:38:24;;;;;;;;;;;;;;;21.01;94.21;152936.53;1757821;81;21215;-57
2022/08/05 03:40:52;;;;;;;;;;;;;;;21.13;93.90;152966.59;1758230;81;20164;-58
2022/08/05 03:43:19;;;;;;;;;;;;;;;21.20;93.23;152983.55;1757714;81;20175;-58
2022/08/05 03:45:46;;;;;;;;;;;;;;;21.24;93.03;152992.72;1757891;81;20131;-58
2022/08/05 03:48:13;;;;;;;;;;;;;;;21.29;92.87;153007.09;1758129;81;20223;-59
2022/08/05 03:50:43;;;;;;;;;;;;;;;21.33;92.86;153016.22;1757678;81;21135;-59
2022/08/05 03:53:19;;;;;;;;;;;;;;;21.39;93.02;153031.94;1757442;80;20488;-58
2022/08/05 03:55:52;;;;;;;;;;;;;;;21.47;92.81;153052.83;1757891;81;20180;-58
2022/08/05 03:58:19;;;;;;;;;;;;;;;21.57;92.78;153076.39;1757672;81;20191;-58
2022/08/05 04:00:46;;;;;;;;;;;;;;;21.70;92.68;153110.41;1757859;81;20195;-58
2022/08/05 04:03:13;;;;;;;;;;;;;;;21.85;92.19;153147.03;1735202;81;21236;-58
2022/08/05 04:05:40;;;;;;;;;;;;;;;21.99;91.50;153183.61;1752593;80;20196;-59
2022/08/05 04:08:09;;;;;;;;;;;;;;;22.16;90.90;153225.47;1745429;82;20164;-59
2022/08/05 04:10:36;;;;;;;;;;;;;;;22.29;90.14;153259.50;1741975;81;20126;-59
2022/08/05 04:13:03;;;;;;;;;;;;;;;22.44;89.34;153296.14;1769907;79;20211;-59
2022/08/05 04:15:30;;;;;;;;;;;;;;;22.58;88.70;153332.78;1769765;81;21198;-58
2022/08/05 04:17:57;;;;;;;;;;;;;;;22.74;88.09;153372.03;1763369;81;20173;-59
2022/08/05 04:20:24;;;;;;;;;;;;;;;22.91;87.33;153413.91;1701859;82;20196;-59
2022/08/05 04:22:51;;;;;;;;;;;;;;;23.06;86.56;153453.13;1739419;81;20189;-58
2022/08/05 04:25:18;;;;;;;;;;;;;;;23.17;85.71;153481.94;1739105;81;20193;-59
2022/08/05 04:27:45;;;;;;;;;;;;;;;23.30;84.85;153513.38;1739860;82;20654;-59
2022/08/05 04:30:11;;;;;;;;;;;;;;;23.34;84.03;153523.88;1739081;81;20184;-59
2022/08/05 04:32:38;;;;;;;;;;;;;;;23.37;83.41;153531.73;1739289;82;20477;-58
2022/08/05 04:35:06;;;;;;;;;;;;;;;23.41;83.23;153542.19;1739238;81;20595;-59
2022/08/05 04:37:33;;;;;;;;;;;;;;;23.49;83.03;153560.50;1739496;81;20165;-59
2022/08/05 04:40:00;;;;;;;;;;;;;;;23.62;82.83;153594.55;1739249;81;22325;-59
2022/08/05 04:42:27;;;;;;;;;;;;;;;23.74;82.05;153625.94;1739097;81;21444;-59
2022/08/05 04:44:53;;;;;;;;;;;;;;;23.85;81.71;153652.14;1739073;81;20169;-58
2022/08/05 04:47:20;;;;;;;;;;;;;;;23.92;81.09;153670.45;1739178;82;20204;-58
2022/08/05 04:49:47;;;;;;;;;;;;;;;24.03;80.71;153699.33;1739350;82;20204;-58
2022/08/05 04:52:14;;;;;;;;;;;;;;;24.18;80.35;153735.95;1739147;81;21317;-59
2022/08/05 04:54:41;;;;;;;;;;;;;;;24.33;79.84;153773.97;1739162;81;20261;-59
2022/08/05 04:57:08;;;;;;;;;;;;;;;24.50;79.27;153815.84;1739272;81;20180;-59
2022/08/05 04:59:35;;;;;;;;;;;;;;;24.64;78.45;153851.19;1739244;81;20177;-59
2022/08/05 05:02:01;;;;;;;;;;;;;;;24.77;78.17;153885.31;1739484;81;20200;-78
2022/08/05 05:04:28;;;;;;;;;;;;;;;24.89;77.34;153916.78;1739222;82;21229;-78
2022/08/05 05:06:55;;;;;;;;;;;;;;;25.01;77.07;153945.56;1739350;82;20128;-78
2022/08/05 05:09:21;;;;;;;;;;;;;;;25.16;76.49;153984.88;1739034;81;20208;-59
2022/08/05 05:11:48;;;;;;;;;;;;;;;25.27;75.96;154011.06;1735924;82;21732;-59
2022/08/05 05:14:15;;;;;;;;;;;;;;;25.38;75.54;154039.91;1733333;82;20202;-78
2022/08/05 05:16:42;;;;;;;;;;;;;;;25.50;75.05;154070.09;1733573;82;21356;-78
2022/08/05 05:19:08;;;;;;;;;;;;;;;25.63;74.59;154101.52;1758757;81;20206;-59
2022/08/05 05:21:35;;;;;;;;;;;;;;;25.77;73.81;154136.95;1770019;80;20166;-59
2022/08/05 05:24:02;;;;;;;;;;;;;;;25.91;72.82;154173.61;1769894;81;20299;-59
2022/08/05 05:26:29;;;;;;;;;;;;;;;26.01;72.32;154198.52;1769668;80;20492;-77
2022/08/05 05:28:56;;;;;;;;;;;;;;;26.13;72.21;154228.66;1769838;81;21833;-78
2022/08/05 05:31:23;;;;;;;;;;;;;;;26.25;72.26;154260.20;1769721;81;20178;-78
2022/08/05 05:33:50;;;;;;;;;;;;;;;26.38;71.53;154292.97;1769791;80;20175;-59
2022/08/05 05:36:17;;;;;;;;;;;;;;;26.44;71.21;154308.69;1769454;81;20624;-58
2022/08/05 05:38:43;;;;;;;;;;;;;;;26.55;70.94;154336.22;1769698;81;20142;-59
2022/08/05 05:41:10;;;;;;;;;;;;;;;26.67;70.44;154365.09;1769476;81;21744;-59
2022/08/05 05:43:37;;;;;;;;;;;;;;;26.78;69.61;154393.91;1746193;81;20716;-59
2022/08/05 05:46:04;;;;;;;;;;;;;;;26.91;69.29;154425.45;1769734;81;20178;-59
2022/08/05 05:48:31;;;;;;;;;;;;;;;27.03;68.75;154456.91;1762967;80;20487;-59
2022/08/05 05:50:58;;;;;;;;;;;;;;;27.09;68.35;154471.34;1761290;81;20254;-59
2022/08/05 05:53:24;;;;;;;;;;;;;;;27.15;68.30;154488.41;1749068;80;22965;-60
2022/08/05 05:55:51;;;;;;;;;;;;;;;27.26;67.43;154514.61;1756888;81;20221;-58
2022/08/05 05:58:17;;;;;;;;;;;;;;;27.34;66.83;154534.30;1752470;80;20224;-59
2022/08/05 06:00:44;;;;;;;;;;;;;;;27.35;66.53;154536.91;1751662;81;20617;-59
2022/08/05 06:03:11;;;;;;;;;;;;;;;27.40;66.18;154551.34;1759392;81;20182;-58
2022/08/05 06:05:37;;;;;;;;;;;;;;;27.48;65.81;154569.70;1759113;80;21132;-59
2022/08/05 06:08:04;;;;;;;;;;;;;;;27.55;65.54;154588.16;1763225;80;20454;-60
2022/08/05 06:10:32;;;;;;;;;;;;;;;27.57;65.22;154593.39;1792033;79;20556;-58
2022/08/05 06:12:59;;;;;;;;;;;;;;;27.59;64.99;154598.64;1788865;78;20179;-59
2022/08/05 06:15:26;;;;;;;;;;;;;;;27.58;64.08;154596.02;1791930;78;20462;-59
2022/08/05 06:17:53;;;;;;;;;;;;;;;27.58;64.03;154596.02;1774668;77;21238;-59
2022/08/05 06:20:20;;;;;;;;;;;;;;;27.62;63.34;154606.50;1770733;79;20404;-59
2022/08/05 06:22:46;;;;;;;;;;;;;;;27.68;61.83;154622.23;1780664;78;20183;-59
2022/08/05 06:25:13;;;;;;;;;;;;;;;27.71;61.19;154630.09;1780658;77;20165;-59
2022/08/05 06:27:41;;;;;;;;;;;;;;;27.79;61.03;154648.50;1775351;78;20133;-59
2022/08/05 06:30:14;;;;;;;;;;;;;;;27.83;61.20;154660.27;1780958;77;21134;-60
2022/08/05 06:32:39;;;;;;;;;;;;;;;27.90;61.62;154677.34;1775382;79;20473;-60
2022/08/05 06:35:07;;;;;;;;;;;;;;;27.93;61.66;154683.92;1776079;78;20196;-60
2022/08/05 06:37:33;;;;;;;;;;;;;;;28.01;61.43;154706.23;1785071;79;20181;-60
2022/08/05 06:40:00;;;;;;;;;;;;;;;28.11;60.78;154729.83;1779949;79;20580;-60
2022/08/05 06:42:27;;;;;;;;;;;;;;;28.18;60.18;154748.23;1782163;79;21258;-60
2022/08/05 06:44:53;;;;;;;;;;;;;;;28.23;59.82;154761.39;1775194;78;20126;-60
2022/08/05 06:47:20;;;;;;;;;;;;;;;28.28;59.70;154773.17;1775337;79;20185;-60
2022/08/05 06:49:47;;;;;;;;;;;;;;;28.35;59.60;154790.25;1784706;78;20484;-60
2022/08/05 06:52:14;;;;;;;;;;;;;;;28.40;59.38;154803.36;1773340;78;20177;-59
2022/08/05 06:54:41;;;;;;;;;;;;;;;28.37;59.81;154796.83;1780779;79;22162;-59
2022/08/05 06:57:08;;;;;;;;;;;;;;;28.39;60.26;154802.06;1776197;79;20367;-59
2022/08/05 06:59:35;;;;;;;;;;;;;;;28.40;59.99;154803.36;1788791;79;20149;-59
2022/08/05 07:02:01;;;;;;;;;;;;;;;28.37;60.10;154795.48;1777547;78;20711;-59
2022/08/05 07:04:29;;;;;;;;;;;;;;;28.40;60.23;154804.69;1781514;78;20193;-59
2022/08/05 07:06:55;;;;;;;;;;;;;;;28.46;59.98;154819.14;1780375;79;21235;-59
2022/08/05 07:09:22;;;;;;;;;;;;;;;28.45;60.62;154816.52;1771255;79;20450;-58
2022/08/05 07:11:50;;;;;;;;;;;;;;;28.53;61.01;154837.50;1759338;79;20175;-58
2022/08/05 07:17:02;;;;;;;;;;;;;;;28.61;60.90;154857.19;1747630;81;20199;-59
2022/08/05 07:19:29;;;;;;;;;;;;;;;28.63;60.79;154861.11;1754928;79;21193;-58
2022/08/05 07:21:55;;;;;;;;;;;;;;;28.60;60.81;154855.86;1755999;81;20204;-59
2022/08/05 07:24:22;;;;;;;;;;;;;;;28.57;60.95;154847.98;1759083;81;20256;-59
2022/08/05 07:26:49;;;;;;;;;;;;;;;28.60;61.30;154855.86;1751984;79;20205;-59
2022/08/05 07:29:15;;;;;;;;;;;;;;;28.63;60.61;154862.44;1754923;79;20177;-59
2022/08/05 07:31:42;;;;;;;;;;;;;;;28.67;60.95;154872.94;1754821;79;21126;-59
2022/08/05 07:34:09;;;;;;;;;;;;;;;28.74;61.30;154890.00;1750213;81;20188;-59
2022/08/05 07:36:36;;;;;;;;;;;;;;;28.86;60.73;154921.58;1753371;81;20481;-60
2022/08/05 07:39:04;;;;;;;;;;;;;;;28.80;60.36;154905.80;1745481;79;20765;-60
2022/08/05 07:41:30;;;;;;;;;;;;;;;28.73;60.72;154888.67;1748709;79;20464;-60
2022/08/05 07:43:57;;;;;;;;;;;;;;;28.76;60.76;154893.97;1755039;80;20647;-61
2022/08/05 07:46:26;;;;;;;;;;;;;;;28.82;60.27;154911.05;1749494;79;20466;-59
2022/08/05 07:48:58;;;;;;;;;;;;;;;28.92;59.99;154934.70;1749530;81;20269;-60
2022/08/05 07:51:25;;;;;;;;;;;;;;;29.00;59.45;154957.03;1750944;80;20155;-60
2022/08/05 07:53:52;;;;;;;;;;;;;;;29.09;59.40;154979.34;1752773;81;20217;-59
2022/08/05 07:56:19;;;;;;;;;;;;;;;29.18;58.91;155000.34;1752713;81;21114;-59
2022/08/05 07:58:46;;;;;;;;;;;;;;;29.21;58.80;155008.22;1748113;81;20194;-60
2022/08/05 08:01:12;;;;;;;;;;;;;;;29.15;58.76;154995.09;1757438;80;20467;-60
2022/08/05 08:03:39;;;;;;;;;;;;;;;29.15;59.08;154995.09;1753017;81;20419;-60
2022/08/05 08:06:06;;;;;;;;;;;;;;;29.18;59.05;155000.34;1754241;79;20333;-59
2022/08/05 08:08:34;;;;;;;;;;;;;;;29.16;59.05;154997.72;1752500;79;21218;-59
2022/08/05 08:11:01;;;;;;;;;;;;;;;29.07;59.39;154974.11;1750788;81;20173;-58
2022/08/05 08:13:29;;;;;;;;;;;;;;;29.04;59.97;154966.19;1756800;80;32561;-58
2022/08/05 08:15:56;;;;;;;;;;;;;;;29.12;59.42;154987.22;1760686;79;20270;-58
2022/08/05 08:18:22;;;;;;;;;;;;;;;29.19;59.38;155004.30;1758210;79;20309;-59
2022/08/05 08:20:50;;;;;;;;;;;;;;;29.28;58.90;155027.92;1754160;81;21015;-59
2022/08/05 08:23:17;;;;;;;;;;;;;;;29.34;59.19;155042.38;1753244;80;20193;-60
2022/08/05 08:25:44;;;;;;;;;;;;;;;29.39;58.82;155055.50;1753315;81;20158;-59
2022/08/05 08:28:11;;;;;;;;;;;;;;;29.43;58.34;155066.03;1751603;81;20208;-59
2022/08/05 08:30:38;;;;;;;;;;;;;;;29.42;57.82;155063.41;1745747;81;20168;-59
2022/08/05 08:33:11;;;;;;;;;;;;;;;29.39;57.58;155055.50;1751257;81;21235;-59
2022/08/05 08:35:38;;;;;;;;;;;;;;;29.36;58.40;155047.63;1757293;80;20204;-59
2022/08/05 08:38:05;;;;;;;;;;;;;;;29.32;58.89;155037.13;1747728;81;20477;-59
2022/08/05 08:40:33;;;;;;;;;;;;;;;29.27;59.22;155025.28;1755368;79;21300;-59
2022/08/05 08:43:00;;;;;;;;;;;;;;;29.19;59.58;155002.97;1748763;81;20179;-60
2022/08/05 08:45:27;;;;;;;;;;;;;;;29.13;59.77;154989.84;1756214;79;21113;-60
2022/08/05 08:47:54;;;;;;;;;;;;;;;29.14;60.00;154991.12;1751252;81;20198;-60
2022/08/05 08:50:21;;;;;;;;;;;;;;;29.18;59.71;155000.34;1742998;80;20354;-58
2022/08/05 08:52:57;;;;;;;;;;;;;;;29.21;59.63;155008.22;1756591;81;20501;-58
2022/08/05 08:55:24;;;;;;;;;;;;;;;29.28;59.65;155026.58;1748072;81;20173;-59
2022/08/05 08:57:50;;;;;;;;;;;;;;;29.27;59.40;155023.95;1751119;81;21199;-59
2022/08/05 09:00:17;;;;;;;;;;;;;;;29.23;59.12;155013.47;1754831;80;20185;-59
2022/08/05 09:02:45;;;;;;;;;;;;;;;29.31;59.10;155034.50;1753784;81;20168;-59
2022/08/05 09:05:11;;;;;;;;;;;;;;;29.47;58.96;155073.91;1759310;79;20181;-58
2022/08/05 09:07:38;;;;;;;;;;;;;;;29.59;58.94;155105.45;1750391;81;20223;-59
2022/08/05 09:10:06;;;;;;;;;;;;;;;29.65;58.65;155119.91;1758945;79;21231;-59
2022/08/05 09:12:33;;;;;;;;;;;;;;;29.73;57.72;155142.25;1761202;79;20692;-59
2022/08/05 09:15:02;;;;;;;;;;;;;;;29.81;57.45;155160.61;1758808;80;20136;-59
2022/08/05 09:17:28;;;;;;;;;;;;;;;29.81;57.10;155160.61;1761669;79;20147;-59
2022/08/05 09:19:55;;;;;;;;;;;;;;;29.79;56.72;155155.36;1766495;79;20192;-59
2022/08/05 09:22:22;;;;;;;;;;;;;;;29.77;56.44;155150.11;1763386;80;22898;-58
2022/08/05 09:25:02;;;;;;;;;;;;;;;29.77;56.11;155151.41;1766257;80;21200;-58
2022/08/05 09:27:34;;;;;;;;;;;;;;;29.80;56.26;155157.98;1764509;80;20199;-58
2022/08/05 09:30:01;;;;;;;;;;;;;;;29.82;56.50;155164.53;1770784;80;20227;-59
2022/08/05 09:32:36;;;;;;;;;;;;;;;29.80;55.45;155157.98;1767329;80;20174;-60
2022/08/05 09:35:14;;;;;;;;;;;;;;;29.81;55.55;155160.61;1721887;82;21082;-59
2022/08/05 09:37:52;;;;;;;;;;;;;;;29.88;55.60;155180.33;1746337;81;20312;-59
2022/08/05 09:40:35;;;;;;;;;;;;;;;29.97;55.36;155202.66;1700655;82;20482;-59
2022/08/05 09:43:05;;;;;;;;;;;;;;;30.06;55.12;155225.00;1763458;79;20408;-59
2022/08/05 09:45:37;;;;;;;;;;;;;;;30.10;54.77;155234.20;1767074;80;20480;-59
2022/08/05 09:48:25;;;;;;;;;;;;;;;30.15;55.05;155247.33;1768144;79;21228;-59
2022/08/05 09:50:54;;;;;;;;;;;;;;;30.19;55.00;155257.88;1771737;79;20328;-58
2022/08/05 09:53:21;;;;;;;;;;;;;;;30.24;54.62;155271.00;1770952;79;20215;-58
2022/08/05 09:55:52;;;;;;;;;;;;;;;30.27;54.41;155278.88;1768876;79;20871;-59
2022/08/05 09:58:19;;;;;;;;;;;;;;;30.28;54.33;155281.50;1767409;79;20196;-58
2022/08/05 10:01:01;;;;;;;;;;;;;;;30.36;54.50;155299.89;1767660;80;21128;-58
2022/08/05 10:03:28;;;;;;;;;;;;;;;30.38;54.36;155306.47;1772202;79;20232;-59
2022/08/05 10:06:06;;;;;;;;;;;;;;;30.45;54.52;155323.56;1768470;79;20251;-59
2022/08/05 10:08:34;;;;;;;;;;;;;;;30.48;54.54;155331.44;1758681;79;20178;-60
2022/08/05 10:11:03;;;;;;;;;;;;;;;30.48;53.77;155331.44;1763978;79;20194;-60
2022/08/05 10:13:35;;;;;;;;;;;;;;;30.44;53.44;155322.22;1753783;79;21236;-59
2022/08/05 10:16:03;;;;;;;;;;;;;;;30.36;53.25;155301.22;1756260;79;20220;-60
2022/08/05 10:18:31;;;;;;;;;;;;;;;30.34;53.09;155295.97;1752049;79;20463;-60
2022/08/05 10:21:03;;;;;;;;;;;;;;;30.32;52.63;155289.38;1749043;79;20445;-60
2022/08/05 10:23:35;;;;;;;;;;;;;;;30.27;52.49;155277.55;1753469;80;20180;-60
2022/08/05 10:26:04;;;;;;;;;;;;;;;30.18;52.79;155255.25;1743068;81;21133;-60
2022/08/05 10:28:31;;;;;;;;;;;;;;;29.99;53.31;155207.91;1746453;79;20235;-59
2022/08/05 10:30:58;;;;;;;;;;;;;;;29.79;53.93;155155.36;1753003;81;20146;-60
2022/08/05 10:33:28;;;;;;;;;;;;;;;29.58;54.27;155104.11;1749472;81;20268;-60
2022/08/05 10:35:55;;;;;;;;;;;;;;;29.39;54.79;155055.50;1761825;80;20410;-60
2022/08/05 10:38:24;;;;;;;;;;;;;;;29.21;55.38;155008.22;1758062;81;21137;-58
2022/08/05 10:40:57;;;;;;;;;;;;;;;29.06;56.71;154971.44;1750876;79;20246;-59
2022/08/05 10:44:03;;;;;;;;;;;;;;;28.87;57.78;154924.22;1759604;79;20499;-59
2022/08/05 10:46:49;;;;;;;;;;;;;;;28.66;58.78;154869.03;1751078;79;20503;-59
2022/08/05 10:49:16;;;;;;;;;;;;;;;28.46;59.96;154819.14;1730510;80;20199;-59
2022/08/05 10:51:48;;;;;;;;;;;;;;;28.31;62.76;154781.09;1760017;80;21287;-59
2022/08/05 10:54:15;;;;;;;;;;;;;;;28.15;63.87;154740.31;1744561;81;20188;-59
2022/08/05 10:56:47;;;;;;;;;;;;;;;27.97;64.64;154695.75;1757322;81;20122;-59
2022/08/05 10:59:20;;;;;;;;;;;;;;;27.79;66.08;154648.50;1746308;79;20168;-59
2022/08/05 11:01:47;;;;;;;;;;;;;;;27.55;67.19;154588.16;1750590;79;20107;-59
2022/08/05 11:04:19;;;;;;;;;;;;;;;27.42;67.75;154555.31;1742316;81;21247;-59
2022/08/05 11:07:05;;;;;;;;;;;;;;;27.31;69.09;154529.05;1756587;81;20997;-60
2022/08/05 11:09:40;;;;;;;;;;;;;;;27.22;69.86;154504.13;1747828;81;20180;-58
2022/08/05 11:12:42;;;;;;;;;;;;;;;27.12;70.55;154480.53;1774164;78;20167;-59
2022/08/05 11:15:21;;;;;;;;;;;;;;;27.06;71.98;154464.77;1748279;78;20332;-59
2022/08/05 11:17:51;;;;;;;;;;;;;;;26.96;73.54;154438.56;1774392;80;21130;-60
2022/08/05 11:20:37;;;;;;;;;;;;;;;26.95;74.57;154435.94;1773763;80;20260;-78
2022/08/05 11:23:34;;;;;;;;;;;;;;;27.00;74.14;154449.03;1774325;80;20151;-77
2022/08/05 11:26:10;;;;;;;;;;;;;;;27.12;72.82;154480.53;1769399;78;20177;-77
2022/08/05 11:28:38;;;;;;;;;;;;;;;27.27;72.29;154517.23;1772536;78;20252;-76
2022/08/05 11:31:08;;;;;;;;;;;;;;;27.42;72.29;154556.59;1768849;78;22015;-59
2022/08/05 11:33:38;;;;;;;;;;;;;;;27.59;71.39;154598.64;1770857;78;20578;-59
2022/08/05 11:36:06;;;;;;;;;;;;;;;27.80;69.91;154652.41;1720193;80;20149;-60
2022/08/05 11:38:51;;;;;;;;;;;;;;;27.97;69.49;154695.75;1756434;79;20480;-58
2022/08/05 11:41:19;;;;;;;;;;;;;;;28.06;68.08;154716.72;1740661;79;20186;-59
2022/08/05 11:44:05;;;;;;;;;;;;;;;28.14;67.38;154737.69;1741937;79;21216;-58
2022/08/05 11:46:36;;;;;;;;;;;;;;;28.16;64.58;154742.98;1743314;79;20196;-78
2022/08/05 11:49:05;;;;;;;;;;;;;;;28.17;64.30;154745.61;1764417;79;20216;-77
2022/08/05 11:51:31;;;;;;;;;;;;;;;28.26;65.13;154769.27;1760323;79;21649;-74
2022/08/05 11:54:00;;;;;;;;;;;;;;;28.35;64.03;154790.25;1775025;80;20338;-74
2022/08/05 11:56:45;;;;;;;;;;;;;;;28.40;62.70;154803.36;1764443;80;21497;-76
2022/08/05 11:59:14;;;;;;;;;;;;;;;28.41;61.54;154806.03;1765872;78;20342;-73
2022/08/05 12:01:57;;;;;;;;;;;;;;;28.41;60.74;154806.03;1761320;80;20205;-61
2022/08/05 12:04:24;;;;;;;;;;;;;;;28.44;60.49;154813.89;1752014;79;20174;-60
2022/08/05 12:06:51;;;;;;;;;;;;;;;28.42;60.03;154808.66;1746165;81;20216;-59
2022/08/05 12:09:21;;;;;;;;;;;;;;;28.47;61.10;154821.77;1748250;81;21223;-60
2022/08/05 12:11:48;;;;;;;;;;;;;;;28.55;61.71;154842.75;1774381;78;20472;-77
2022/08/05 12:14:15;;;;;;;;;;;;;;;28.64;60.89;154863.78;1776249;80;20202;-60
2022/08/05 12:16:42;;;;;;;;;;;;;;;28.70;58.69;154879.52;1772311;80;20430;-60
2022/08/05 12:19:10;;;;;;;;;;;;;;;28.77;57.56;154896.59;1775729;78;20202;-60
2022/08/05 12:21:49;;;;;;;;;;;;;;;28.81;57.02;154907.13;1767598;80;21207;-61
2022/08/05 12:24:17;;;;;;;;;;;;;;;28.83;56.45;154912.38;1776512;80;20154;-59
2022/08/05 12:26:51;;;;;;;;;;;;;;;28.90;56.11;154929.45;1771087;78;20141;-60
2022/08/05 12:29:22;;;;;;;;;;;;;;;28.95;55.49;154943.86;1771525;80;20380;-58
2022/08/05 12:31:54;;;;;;;;;;;;;;;29.00;55.67;154955.69;1775878;79;20239;-76
2022/08/05 12:34:22;;;;;;;;;;;;;;;29.03;55.51;154963.56;1772806;80;21299;-76
2022/08/05 12:36:50;;;;;;;;;;;;;;;29.08;55.18;154976.72;1767548;78;20259;-77
2022/08/05 12:39:17;;;;;;;;;;;;;;;29.09;54.87;154979.34;1766545;80;20522;-76
2022/08/05 12:41:44;;;;;;;;;;;;;;;29.11;54.78;154984.59;1780032;80;20201;-75
2022/08/05 12:44:15;;;;;;;;;;;;;;;29.16;54.83;154997.72;1768639;80;20173;-76
2022/08/05 12:46:42;;;;;;;;;;;;;;;29.23;54.93;155013.47;1774024;80;21140;-76
2022/08/05 12:49:10;;;;;;;;;;;;;;;29.31;55.38;155034.50;1774153;78;20252;-75